createdAt,value
2018-10-07T00:00:31.794Z,14.50
2018-10-07T00:03:00.517Z,13.88
2018-10-07T00:05:28.851Z,14.63
2018-10-07T00:07:57.504Z,13.70
2018-10-07T00:10:25.844Z,13.32
2018-10-07T00:12:54.114Z,12.68
2018-10-07T00:15:22.879Z,13.23
2018-10-07T00:17:51.150Z,13.80
2018-10-07T00:20:19.411Z,13.50
2018-10-07T00:22:47.737Z,12.50
2018-10-07T00:25:16.004Z,15.50
2018-10-07T00:27:44.378Z,12.95
2018-10-07T00:30:12.657Z,12.95
2018-10-07T00:32:41.374Z,14.37
2018-10-07T00:35:09.706Z,12.93
2018-10-07T00:37:38.024Z,13.43
2018-10-07T00:40:06.725Z,12.73
2018-10-07T00:42:35.210Z,12.75
2018-10-07T00:45:03.967Z,12.57
2018-10-07T00:47:32.254Z,12.23
2018-10-07T00:50:00.828Z,11.23
2018-10-07T00:52:29.221Z,11.22
2018-10-07T00:54:57.534Z,11.97
2018-10-07T00:57:25.818Z,11.07
2018-10-07T00:59:54.148Z,12.27
2018-10-07T01:02:22.847Z,12.47
2018-10-07T01:04:51.105Z,10.23
2018-10-07T01:07:20.100Z,11.53
2018-10-07T01:09:48.378Z,11.73
2018-10-07T01:12:16.698Z,11.13
2018-10-07T01:14:44.994Z,12.23
2018-10-07T01:17:13.634Z,12.18
2018-10-07T01:19:41.969Z,11.43
2018-10-07T01:22:10.231Z,11.50
2018-10-07T01:24:38.536Z,11.60
2018-10-07T01:27:07.085Z,13.53
2018-10-07T01:29:35.709Z,12.30
2018-10-07T01:32:04.012Z,13.13
2018-10-07T01:34:32.811Z,13.00
2018-10-07T01:37:01.105Z,12.13
2018-10-07T01:39:29.916Z,12.43
2018-10-07T01:41:58.233Z,11.17
2018-10-07T01:44:27.138Z,13.75
2018-10-07T01:46:55.460Z,11.80
2018-10-07T01:49:25.634Z,11.17
2018-10-07T01:51:53.926Z,10.37
2018-10-07T01:54:22.206Z,10.63
2018-10-07T01:56:50.498Z,10.50
2018-10-07T01:59:18.792Z,11.00
2018-10-07T02:01:48.038Z,11.60
2018-10-07T02:04:17.002Z,11.00
2018-10-07T02:06:45.344Z,10.63
2018-10-07T02:09:14.231Z,11.30
2018-10-07T02:11:42.571Z,11.00
2018-10-07T02:14:10.853Z,10.80
2018-10-07T02:16:39.621Z,11.00
2018-10-07T02:19:07.934Z,10.93
2018-10-07T02:21:36.905Z,10.43
2018-10-07T02:24:05.240Z,11.47
2018-10-07T02:26:34.364Z,12.00
2018-10-07T02:29:02.716Z,11.93
2018-10-07T02:31:31.441Z,11.00
2018-10-07T02:33:59.763Z,10.33
2018-10-07T02:36:28.036Z,12.70
2018-10-07T02:38:56.767Z,11.53
2018-10-07T02:41:25.058Z,10.70
2018-10-07T02:43:53.353Z,10.27
2018-10-07T02:46:22.631Z,9.73
2018-10-07T02:48:51.420Z,11.10
2018-10-07T02:51:19.786Z,10.77
2018-10-07T02:53:48.095Z,11.03
2018-10-07T02:56:16.441Z,11.77
2018-10-07T02:58:44.778Z,12.30
2018-10-07T03:01:13.157Z,11.75
2018-10-07T03:03:41.658Z,11.07
2018-10-07T03:06:09.954Z,11.00
2018-10-07T03:08:38.578Z,11.10
2018-10-07T03:11:06.903Z,10.72
2018-10-07T03:13:36.008Z,11.80
2018-10-07T03:16:04.694Z,11.90
2018-10-07T03:18:33.657Z,11.87
2018-10-07T03:21:01.979Z,11.97
2018-10-07T03:23:30.279Z,11.53
2018-10-07T03:25:58.578Z,11.40
2018-10-07T03:28:26.878Z,12.58
2018-10-07T03:30:55.504Z,12.23
2018-10-07T03:33:23.784Z,11.40
2018-10-07T03:35:52.060Z,13.15
2018-10-07T03:38:20.344Z,11.87
2018-10-07T03:40:48.626Z,10.77
2018-10-07T03:43:16.990Z,11.80
2018-10-07T03:45:45.855Z,10.93
2018-10-07T03:48:14.139Z,11.53
2018-10-07T03:50:43.023Z,12.47
2018-10-07T03:53:11.318Z,12.13
2018-10-07T03:55:39.594Z,11.93
2018-10-07T03:58:07.878Z,12.75
2018-10-07T04:00:36.182Z,11.70
2018-10-07T04:03:05.042Z,12.37
2018-10-07T04:05:33.919Z,12.97
2018-10-07T04:08:03.046Z,12.43
2018-10-07T04:10:31.317Z,11.97
2018-10-07T04:13:00.238Z,12.33
2018-10-07T04:15:28.966Z,12.00
2018-10-07T04:17:57.258Z,11.10
2018-10-07T04:20:25.534Z,11.40
2018-10-07T04:22:53.853Z,10.90
2018-10-07T04:25:22.143Z,11.50
2018-10-07T04:27:50.516Z,12.43
2018-10-07T04:30:18.825Z,11.57
2018-10-07T04:32:47.647Z,12.25
2018-10-07T04:35:15.954Z,12.00
2018-10-07T04:37:44.250Z,12.37
2018-10-07T04:40:12.566Z,11.83
2018-10-07T04:42:40.852Z,11.80
2018-10-07T04:45:09.568Z,11.07
2018-10-07T04:47:37.876Z,12.40
2018-10-07T04:50:06.680Z,11.77
2018-10-07T04:52:34.984Z,11.33
2018-10-07T04:55:03.955Z,11.75
2018-10-07T04:57:32.726Z,12.40
2018-10-07T05:00:01.035Z,11.50
2018-10-07T05:02:29.862Z,11.33
2018-10-07T05:04:58.182Z,11.83
2018-10-07T05:07:27.051Z,12.17
2018-10-07T05:10:06.609Z,12.07
2018-10-07T05:12:35.008Z,12.17
2018-10-07T05:15:03.325Z,12.33
2018-10-07T05:17:32.512Z,11.20
2018-10-07T05:20:00.866Z,11.77
2018-10-07T05:22:29.189Z,12.70
2018-10-07T05:24:57.548Z,12.93
2018-10-07T05:27:25.839Z,13.33
2018-10-07T05:29:54.190Z,12.27
2018-10-07T05:32:22.963Z,12.73
2018-10-07T05:34:51.240Z,13.38
2018-10-07T05:37:19.560Z,13.22
2018-10-07T05:39:47.840Z,14.07
2018-10-07T05:42:16.129Z,12.53
2018-10-07T05:44:44.496Z,11.80
2018-10-07T05:47:13.545Z,12.17
2018-10-07T05:49:42.414Z,12.17
2018-10-07T05:52:10.697Z,11.75
2018-10-07T05:54:39.678Z,11.85
2018-10-07T05:57:07.955Z,12.10
2018-10-07T05:59:36.246Z,18.23
2018-10-07T06:02:06.857Z,12.20
2018-10-07T06:04:40.066Z,12.07
2018-10-07T06:07:08.750Z,12.40
2018-10-07T06:09:37.785Z,13.23
2018-10-07T06:12:06.311Z,12.37
2018-10-07T06:15:38.735Z,11.40
2018-10-07T06:18:07.422Z,11.33
2018-10-07T06:22:58.634Z,11.50
2018-10-07T06:25:27.115Z,11.10
2018-10-07T06:27:55.985Z,12.10
2018-10-07T06:30:24.561Z,12.17
2018-10-07T06:32:53.858Z,12.03
2018-10-07T06:35:22.926Z,11.77
2018-10-07T06:37:51.225Z,10.90
2018-10-07T06:40:19.558Z,11.10
2018-10-07T06:42:48.799Z,11.57
2018-10-07T06:45:18.097Z,12.33
2018-10-07T06:47:47.010Z,10.90
2018-10-07T06:50:16.154Z,12.27
2018-10-07T06:52:44.465Z,11.28
2018-10-07T06:55:13.271Z,11.63
2018-10-07T06:57:41.539Z,11.93
2018-10-07T07:00:09.948Z,12.03
2018-10-07T07:02:38.852Z,11.80
2018-10-07T07:05:07.124Z,11.57
2018-10-07T07:07:36.131Z,12.37
2018-10-07T07:10:04.450Z,11.53
2018-10-07T07:12:32.738Z,12.00
2018-10-07T07:15:01.011Z,11.60
2018-10-07T07:17:29.751Z,11.08
2018-10-07T07:19:58.220Z,10.93
2018-10-07T07:22:26.845Z,11.22
2018-10-07T07:24:55.164Z,12.70
2018-10-07T07:27:23.482Z,12.25
2018-10-07T07:29:51.794Z,11.70
2018-10-07T07:32:20.573Z,12.30
2018-10-07T07:34:48.905Z,13.75
2018-10-07T07:37:17.629Z,11.33
2018-10-07T07:39:45.926Z,10.90
2018-10-07T07:42:14.218Z,12.23
2018-10-07T07:44:43.031Z,11.45
2018-10-07T07:47:11.345Z,11.22
2018-10-07T07:49:40.083Z,11.60
2018-10-07T07:52:08.386Z,11.80
2018-10-07T07:54:36.668Z,10.93
2018-10-07T07:57:04.969Z,11.83
2018-10-07T07:59:33.244Z,11.33
2018-10-07T08:02:02.129Z,11.45
2018-10-07T08:04:30.420Z,10.68
2018-10-07T08:06:58.695Z,11.73
2018-10-07T08:09:27.464Z,11.00
2018-10-07T08:11:56.266Z,12.28
2018-10-07T08:14:24.529Z,11.50
2018-10-07T08:16:53.111Z,11.53
2018-10-07T08:19:21.385Z,11.85
2018-10-07T08:21:50.456Z,11.90
2018-10-07T08:24:18.701Z,12.58
2018-10-07T08:26:47.308Z,13.20
2018-10-07T08:29:15.871Z,11.88
2018-10-07T08:31:44.427Z,12.07
2018-10-07T08:34:12.781Z,12.65
2018-10-07T08:36:41.742Z,11.63
2018-10-07T08:39:10.566Z,12.15
2018-10-07T08:41:38.901Z,11.40
2018-10-07T08:44:07.299Z,11.78
2018-10-07T08:46:35.613Z,11.18
2018-10-07T08:49:04.529Z,10.98
2018-10-07T08:51:32.814Z,10.55
2018-10-07T08:54:01.123Z,10.72
2018-10-07T08:56:29.522Z,11.38
2018-10-07T08:58:57.770Z,10.40
2018-10-07T09:01:26.111Z,11.93
2018-10-07T09:03:54.839Z,10.88
2018-10-07T09:06:23.132Z,10.50
2018-10-07T09:08:52.319Z,10.15
2018-10-07T09:11:21.098Z,14.10
2018-10-07T09:13:49.397Z,10.45
2018-10-07T09:16:18.419Z,11.08
2018-10-07T09:18:47.428Z,10.38
2018-10-07T09:21:16.267Z,10.70
2018-10-07T09:23:44.657Z,10.28
2018-10-07T09:26:12.925Z,9.90
2018-10-07T09:28:41.556Z,9.48
2018-10-07T09:31:10.120Z,9.83
2018-10-07T09:33:38.404Z,10.15
2018-10-07T09:36:06.712Z,9.75
2018-10-07T09:38:35.001Z,10.48
2018-10-07T09:41:03.298Z,10.03
2018-10-07T09:43:31.635Z,9.05
2018-10-07T09:45:59.926Z,9.33
2018-10-07T09:48:28.265Z,9.53
2018-10-07T09:50:57.035Z,9.90
2018-10-07T09:53:25.305Z,8.68
2018-10-07T09:55:53.619Z,8.90
2018-10-07T09:58:21.916Z,8.38
2018-10-07T10:00:50.194Z,8.25
2018-10-07T10:03:19.006Z,10.53
2018-10-07T10:05:47.586Z,9.05
2018-10-07T10:08:16.479Z,9.28
2018-10-07T10:10:45.372Z,8.00
2018-10-07T10:13:13.670Z,7.83
2018-10-07T10:15:42.285Z,6.87
2018-10-07T10:18:16.159Z,7.37
2018-10-07T10:20:53.074Z,7.17
2018-10-07T10:23:31.122Z,7.37
2018-10-07T10:26:12.281Z,7.33
2018-10-07T10:30:02.299Z,6.58
2018-10-07T10:33:47.785Z,6.83
2018-10-07T10:36:23.941Z,6.00
2018-10-07T10:39:13.635Z,5.83
2018-10-07T10:41:46.272Z,5.22
2018-10-07T10:44:22.151Z,6.87
2018-10-07T10:46:57.733Z,5.03
2018-10-07T10:49:32.752Z,5.30
2018-10-07T10:53:16.390Z,5.40
2018-10-07T10:56:04.842Z,4.92
2018-10-07T10:58:51.479Z,4.92
2018-10-07T11:01:28.348Z,5.55
2018-10-07T11:04:10.416Z,5.62
2018-10-07T11:06:49.163Z,5.20
2018-10-07T11:09:28.743Z,4.75
2018-10-07T11:12:03.284Z,5.20
2018-10-07T11:15:15.751Z,5.15
2018-10-07T11:17:59.381Z,6.33
2018-10-07T11:22:43.983Z,5.53
2018-10-07T11:25:24.008Z,5.53
2018-10-07T11:27:59.832Z,4.80
2018-10-07T11:30:38.615Z,5.50
2018-10-07T11:33:22.594Z,7.85
2018-10-07T11:36:21.255Z,5.25
2018-10-07T11:39:05.505Z,4.60
2018-10-07T11:41:46.336Z,4.80
2018-10-07T11:44:52.737Z,4.10
2018-10-07T11:47:31.058Z,4.28
2018-10-07T11:50:05.159Z,4.55
2018-10-07T11:52:41.941Z,4.42
2018-10-07T11:55:09.492Z,4.00
2018-10-07T11:57:37.786Z,5.10
2018-10-07T12:00:06.158Z,5.05
2018-10-07T12:02:34.977Z,4.47
2018-10-07T12:05:03.248Z,4.65
2018-10-07T12:07:33.044Z,4.47
2018-10-07T12:10:01.340Z,5.00
2018-10-07T12:12:30.090Z,4.42
2018-10-07T12:14:58.452Z,3.98
2018-10-07T12:17:27.009Z,4.80
2018-10-07T12:19:55.388Z,4.55
2018-10-07T12:22:27.792Z,3.77
2018-10-07T12:24:56.270Z,4.08
2018-10-07T12:27:24.554Z,4.37
2018-10-07T12:29:52.964Z,3.58
2018-10-07T12:32:21.510Z,4.20
2018-10-07T12:34:49.863Z,5.30
2018-10-07T12:37:18.154Z,4.62
2018-10-07T12:39:46.474Z,4.22
2018-10-07T12:42:14.826Z,3.45
2018-10-07T12:44:43.683Z,4.20
2018-10-07T12:47:11.986Z,3.62
2018-10-07T12:49:41.117Z,4.08
2018-10-07T12:52:09.910Z,4.45
2018-10-07T12:54:38.235Z,3.70
2018-10-07T12:57:06.523Z,3.70
2018-10-07T12:59:34.818Z,4.42
2018-10-07T13:02:03.409Z,3.70
2018-10-07T13:04:31.885Z,3.55
2018-10-07T13:07:00.179Z,3.42
2018-10-07T13:09:28.965Z,3.47
2018-10-07T13:12:01.042Z,3.40
2018-10-07T13:14:29.305Z,3.87
2018-10-07T13:16:58.198Z,3.10
2018-10-07T13:19:26.572Z,3.83
2018-10-07T13:21:54.810Z,3.20
2018-10-07T13:24:23.481Z,3.70
2018-10-07T13:26:51.799Z,5.15
2018-10-07T13:29:20.084Z,4.10
2018-10-07T13:31:49.001Z,4.53
2018-10-07T13:34:18.770Z,3.40
2018-10-07T13:36:47.056Z,4.20
2018-10-07T13:39:15.390Z,3.33
2018-10-07T13:41:43.711Z,3.02
2018-10-07T13:44:11.997Z,3.12
2018-10-07T13:46:40.807Z,3.02
2018-10-07T13:49:09.111Z,3.30
2018-10-07T13:51:37.937Z,3.40
2018-10-07T13:54:06.264Z,3.12
2018-10-07T13:56:34.558Z,4.17
2018-10-07T13:59:03.401Z,3.05
2018-10-07T14:01:31.759Z,2.70
2018-10-07T14:04:00.567Z,2.95
2018-10-07T14:06:28.742Z,2.60
2018-10-07T14:08:57.522Z,4.40
2018-10-07T14:11:26.172Z,2.92
2018-10-07T14:13:54.492Z,3.35
2018-10-07T14:16:23.476Z,3.10
2018-10-07T14:18:51.739Z,3.25
2018-10-07T14:21:20.013Z,2.80
2018-10-07T14:23:48.825Z,2.95
2018-10-07T14:26:17.114Z,3.08
2018-10-07T14:28:46.022Z,3.20
2018-10-07T14:31:14.796Z,3.00
2018-10-07T14:33:43.134Z,3.10
2018-10-07T14:36:11.430Z,3.10
2018-10-07T14:38:39.728Z,3.98
2018-10-07T14:41:09.246Z,2.70
2018-10-07T14:43:37.580Z,3.05
2018-10-07T14:46:05.919Z,4.15
2018-10-07T14:48:34.668Z,3.15
2018-10-07T14:51:03.294Z,2.62
2018-10-07T14:53:31.889Z,3.02
2018-10-07T14:56:00.180Z,2.95
2018-10-07T14:58:28.526Z,3.00
2018-10-07T15:00:57.146Z,3.12
2018-10-07T15:03:26.100Z,3.87
2018-10-07T15:05:54.424Z,3.02
2018-10-07T15:08:23.338Z,3.27
2018-10-07T15:10:51.623Z,3.72
2018-10-07T15:13:20.266Z,3.30
2018-10-07T15:15:48.954Z,3.50
2018-10-07T15:18:17.227Z,3.83
2018-10-07T15:20:45.506Z,3.37
2018-10-07T15:23:14.203Z,3.60
2018-10-07T15:25:42.488Z,3.22
2018-10-07T15:28:10.791Z,3.35
2018-10-07T15:30:39.431Z,4.28
2018-10-07T15:33:08.309Z,3.22
2018-10-07T15:35:36.603Z,3.40
2018-10-07T15:38:04.920Z,4.00
2018-10-07T15:40:33.180Z,3.33
2018-10-07T15:43:01.488Z,3.17
2018-10-07T15:45:29.867Z,2.90
2018-10-07T15:47:58.206Z,4.00
2018-10-07T15:50:26.954Z,3.00
2018-10-07T15:52:55.241Z,3.52
2018-10-07T15:55:23.510Z,3.08
2018-10-07T15:57:51.802Z,2.95
2018-10-07T16:00:20.081Z,2.75
2018-10-07T16:02:48.887Z,2.58
2018-10-07T16:05:17.190Z,2.60
2018-10-07T16:07:46.105Z,2.72
2018-10-07T16:10:14.649Z,3.85
2018-10-07T16:12:42.964Z,3.17
2018-10-07T16:15:12.827Z,3.15
2018-10-07T16:17:41.275Z,3.80
2018-10-07T16:20:09.538Z,3.40
2018-10-07T16:22:37.889Z,3.50
2018-10-07T16:25:06.609Z,3.35
2018-10-07T16:27:34.923Z,3.45
2018-10-07T16:30:03.318Z,3.10
2018-10-07T16:32:32.699Z,3.90
2018-10-07T16:35:00.979Z,3.40
2018-10-07T16:37:29.296Z,3.85
2018-10-07T16:39:57.598Z,4.37
2018-10-07T16:42:25.902Z,4.58
2018-10-07T16:44:54.249Z,3.95
2018-10-07T16:47:22.534Z,4.75
2018-10-07T16:49:50.990Z,5.15
2018-10-07T16:52:21.200Z,9.58
2018-10-07T16:54:49.505Z,5.50
2018-10-07T16:57:17.781Z,4.87
2018-10-07T16:59:46.055Z,4.62
2018-10-07T17:02:14.568Z,4.37
2018-10-07T17:07:17.479Z,4.87
2018-10-07T17:09:46.094Z,4.78
2018-10-07T17:12:14.383Z,5.78
2018-10-07T17:14:42.918Z,5.58
2018-10-07T17:17:11.445Z,4.97
2018-10-07T17:19:39.735Z,4.85
2018-10-07T17:22:08.521Z,5.70
2018-10-07T17:24:36.802Z,5.30
2018-10-07T17:27:05.165Z,5.12
2018-10-07T17:29:33.474Z,6.12
2018-10-07T17:32:02.338Z,5.87
2018-10-07T17:34:30.639Z,6.22
2018-10-07T17:36:58.893Z,5.42
2018-10-07T17:39:27.214Z,6.30
2018-10-07T17:41:55.506Z,5.72
2018-10-07T17:44:24.330Z,9.13
2018-10-07T17:46:52.599Z,5.45
2018-10-07T17:49:20.875Z,6.22
2018-10-07T17:51:49.815Z,6.08
2018-10-07T17:54:18.498Z,5.35
2018-10-07T17:56:46.815Z,6.22
2018-10-07T17:59:15.151Z,5.37
2018-10-07T18:01:43.699Z,6.05
2018-10-07T18:04:12.519Z,6.25
2018-10-07T18:06:41.188Z,5.53
2018-10-07T18:09:10.545Z,6.42
2018-10-07T18:11:38.816Z,6.30
2018-10-07T18:14:07.789Z,6.25
2018-10-07T18:16:36.507Z,6.55
2018-10-07T18:19:04.703Z,6.45
2018-10-07T18:21:33.275Z,8.73
2018-10-07T18:24:01.553Z,8.15
2018-10-07T18:26:30.711Z,7.80
2018-10-07T18:28:59.022Z,7.33
2018-10-07T18:31:27.870Z,6.12
2018-10-07T18:33:57.129Z,6.87
2018-10-07T18:36:25.622Z,7.10
2018-10-07T18:38:54.600Z,7.30
2018-10-07T18:41:23.152Z,7.33
2018-10-07T18:43:51.443Z,8.43
2018-10-07T18:46:19.738Z,7.35
2018-10-07T18:48:48.409Z,8.30
2018-10-07T18:51:17.241Z,8.73
2018-10-07T18:53:46.102Z,9.38
2018-10-07T18:56:14.379Z,8.60
2018-10-07T18:58:42.737Z,9.78
2018-10-07T19:01:11.017Z,8.73
2018-10-07T19:03:39.831Z,9.20
2018-10-07T19:06:08.882Z,7.80
2018-10-07T19:08:37.789Z,7.42
2018-10-07T19:11:06.123Z,7.92
2018-10-07T19:13:34.393Z,8.58
2018-10-07T19:16:03.093Z,7.47
2018-10-07T19:18:31.357Z,7.58
2018-10-07T19:20:59.675Z,6.20
2018-10-07T19:23:27.902Z,7.37
2018-10-07T19:25:56.174Z,7.45
2018-10-07T19:28:24.512Z,6.50
2018-10-07T19:30:53.187Z,6.55
2018-10-07T19:33:22.243Z,6.40
2018-10-07T19:35:50.851Z,6.62
2018-10-07T19:38:19.141Z,7.37
2018-10-07T19:40:47.396Z,6.60
2018-10-07T19:43:15.815Z,7.22
2018-10-07T19:45:44.074Z,6.65
2018-10-07T19:48:12.380Z,7.10
2018-10-07T19:50:41.136Z,6.47
2018-10-07T19:53:09.397Z,6.83
2018-10-07T19:55:37.690Z,7.92
2018-10-07T19:58:06.226Z,8.08
2018-10-07T20:00:34.487Z,9.15
2018-10-07T20:03:04.611Z,9.25
2018-10-07T20:05:32.931Z,11.20
2018-10-07T20:08:01.448Z,10.85
2018-10-07T20:10:30.266Z,8.63
2018-10-07T20:12:58.558Z,8.13
2018-10-07T20:15:27.212Z,9.40
2018-10-07T20:17:55.545Z,10.75
2018-10-07T20:20:23.824Z,9.30
2018-10-07T20:22:52.245Z,10.33
2018-10-07T20:25:20.851Z,10.70
2018-10-07T20:27:49.122Z,10.95
2018-10-07T20:30:18.756Z,10.93
2018-10-07T20:32:47.574Z,11.78
2018-10-07T20:35:15.911Z,11.75
2018-10-07T20:37:44.179Z,13.85
2018-10-07T20:40:12.563Z,16.15
2018-10-07T20:42:40.890Z,15.43
2018-10-07T20:47:47.750Z,15.28
2018-10-07T20:50:16.555Z,15.25
2018-10-07T20:52:44.909Z,18.43
2018-10-07T20:55:13.466Z,15.53
2018-10-07T20:57:41.732Z,16.35
2018-10-07T21:00:10.131Z,16.20
2018-10-07T21:02:38.824Z,17.27
2018-10-07T21:05:07.066Z,19.52
2018-10-07T21:07:35.678Z,20.05
2018-10-07T21:10:04.210Z,19.48
2018-10-07T21:12:32.500Z,22.52
2018-10-07T21:15:01.342Z,22.22
2018-10-07T21:17:29.822Z,22.05
2018-10-07T21:19:58.542Z,21.23
2018-10-07T21:22:27.112Z,22.45
2018-10-07T21:24:55.398Z,21.63
2018-10-07T21:27:23.725Z,21.63
2018-10-07T21:29:52.129Z,22.95
2018-10-07T21:32:20.724Z,23.10
2018-10-07T21:34:49.040Z,24.10
2018-10-07T21:37:17.348Z,22.95
2018-10-07T21:39:46.015Z,22.20
2018-10-07T21:42:14.334Z,20.53
2018-10-07T21:44:42.611Z,21.43
2018-10-07T21:47:11.530Z,21.10
2018-10-07T21:49:40.398Z,21.37
2018-10-07T21:52:08.713Z,23.57
2018-10-07T21:54:36.974Z,21.52
2018-10-07T21:57:05.422Z,25.43
2018-10-07T21:59:33.706Z,22.73
2018-10-07T22:02:02.675Z,23.15
2018-10-07T22:04:31.935Z,24.70
2018-10-07T22:07:00.274Z,23.37
2018-10-07T22:09:28.757Z,20.97
2018-10-07T22:11:57.034Z,22.25
2018-10-07T22:14:25.695Z,20.43
2018-10-07T22:16:54.169Z,21.87
2018-10-07T22:19:23.622Z,22.63
2018-10-07T22:21:51.930Z,23.15
2018-10-07T22:24:20.191Z,23.75
2018-10-07T22:26:48.826Z,23.20
2018-10-07T22:29:17.539Z,25.55
2018-10-07T22:31:46.406Z,25.80
2018-10-07T22:34:14.682Z,23.52
2018-10-07T22:36:42.986Z,26.65
2018-10-07T22:39:11.266Z,24.70
2018-10-07T22:41:39.550Z,25.60
2018-10-07T22:44:07.913Z,24.05
2018-10-07T22:46:36.676Z,22.93
2018-10-07T22:49:05.752Z,24.93
2018-10-07T22:51:34.663Z,23.00
2018-10-07T22:54:02.945Z,24.37
2018-10-07T22:56:31.259Z,22.93
2018-10-07T22:58:59.557Z,24.23
2018-10-07T23:01:27.851Z,24.17
2018-10-07T23:03:56.561Z,25.53
2018-10-07T23:06:24.835Z,25.85
2018-10-07T23:08:53.817Z,27.32
2018-10-07T23:11:22.487Z,27.50
2018-10-07T23:13:51.173Z,27.57
2018-10-07T23:16:19.858Z,28.30
2018-10-07T23:18:48.150Z,27.90
2018-10-07T23:21:16.431Z,28.53
2018-10-07T23:23:44.917Z,28.38
2018-10-07T23:26:13.197Z,31.10
2018-10-07T23:28:41.488Z,30.40
2018-10-07T23:31:10.759Z,30.85
2018-10-07T23:33:39.031Z,29.70
2018-10-07T23:36:07.399Z,32.07
2018-10-07T23:38:36.153Z,31.10
2018-10-07T23:41:04.555Z,29.20
2018-10-07T23:43:32.912Z,29.87
2018-10-07T23:46:01.242Z,30.57
2018-10-07T23:48:30.013Z,32.53
2018-10-07T23:50:58.260Z,31.57
2018-10-07T23:53:26.541Z,29.73
2018-10-07T23:55:54.851Z,32.17
2018-10-07T23:58:23.107Z,31.30
